sensor_id;sensor_type;location;lat;lon;timestamp;P1;durP1;ratioP1;P2;durP2;ratioP2
46411;SDS011;32113;42.012;24.870;2024-01-30T00:01:41;6.40;;;4.28;;
46411;SDS011;32113;42.012;24.870;2024-01-30T00:04:06;6.20;;;4.68;;
46411;SDS011;32113;42.012;24.870;2024-01-30T00:06:32;7.50;;;4.85;;
46411;SDS011;32113;42.012;24.870;2024-01-30T00:08:57;6.30;;;4.15;;
46411;SDS011;32113;42.012;24.870;2024-01-30T00:11:23;5.68;;;4.15;;
46411;SDS011;32113;42.012;24.870;2024-01-30T00:13:51;7.50;;;4.47;;
46411;SDS011;32113;42.012;24.870;2024-01-30T00:16:20;6.38;;;4.20;;
46411;SDS011;32113;42.012;24.870;2024-01-30T00:18:46;6.60;;;4.32;;
46411;SDS011;32113;42.012;24.870;2024-01-30T00:21:12;5.97;;;4.18;;
46411;SDS011;32113;42.012;24.870;2024-01-30T00:23:38;6.97;;;4.47;;
46411;SDS011;32113;42.012;24.870;2024-01-30T00:26:03;7.35;;;4.93;;
46411;SDS011;32113;42.012;24.870;2024-01-30T00:28:30;6.00;;;3.95;;
46411;SDS011;32113;42.012;24.870;2024-01-30T00:30:55;5.68;;;4.03;;
46411;SDS011;32113;42.012;24.870;2024-01-30T00:33:21;6.70;;;4.50;;
46411;SDS011;32113;42.012;24.870;2024-01-30T00:35:46;10.85;;;5.22;;
46411;SDS011;32113;42.012;24.870;2024-01-30T00:38:12;7.95;;;5.05;;
46411;SDS011;32113;42.012;24.870;2024-01-30T00:40:37;8.88;;;5.20;;
46411;SDS011;32113;42.012;24.870;2024-01-30T00:43:03;8.73;;;4.72;;
46411;SDS011;32113;42.012;24.870;2024-01-30T00:45:29;6.07;;;4.72;;
46411;SDS011;32113;42.012;24.870;2024-01-30T00:47:54;6.63;;;4.65;;
46411;SDS011;32113;42.012;24.870;2024-01-30T00:50:19;6.40;;;4.82;;
46411;SDS011;32113;42.012;24.870;2024-01-30T00:52:45;6.88;;;4.28;;
46411;SDS011;32113;42.012;24.870;2024-01-30T00:55:11;7.15;;;4.85;;
46411;SDS011;32113;42.012;24.870;2024-01-30T00:57:36;7.43;;;4.90;;
46411;SDS011;32113;42.012;24.870;2024-01-30T01:00:02;5.57;;;4.13;;
46411;SDS011;32113;42.012;24.870;2024-01-30T01:02:28;7.30;;;5.05;;
46411;SDS011;32113;42.012;24.870;2024-01-30T01:04:54;8.25;;;4.63;;
46411;SDS011;32113;42.012;24.870;2024-01-30T01:07:19;5.72;;;4.47;;
46411;SDS011;32113;42.012;24.870;2024-01-30T01:09:45;7.47;;;4.88;;
46411;SDS011;32113;42.012;24.870;2024-01-30T01:12:10;7.85;;;5.10;;
46411;SDS011;32113;42.012;24.870;2024-01-30T01:14:35;7.45;;;5.13;;
46411;SDS011;32113;42.012;24.870;2024-01-30T01:17:01;9.23;;;5.63;;
46411;SDS011;32113;42.012;24.870;2024-01-30T01:19:27;10.65;;;5.25;;
46411;SDS011;32113;42.012;24.870;2024-01-30T01:21:52;9.50;;;5.68;;
46411;SDS011;32113;42.012;24.870;2024-01-30T01:24:18;10.80;;;5.72;;
46411;SDS011;32113;42.012;24.870;2024-01-30T01:26:43;11.30;;;5.85;;
46411;SDS011;32113;42.012;24.870;2024-01-30T01:29:09;8.93;;;5.72;;
46411;SDS011;32113;42.012;24.870;2024-01-30T01:31:37;9.73;;;5.47;;
46411;SDS011;32113;42.012;24.870;2024-01-30T01:34:10;8.32;;;4.70;;
46411;SDS011;32113;42.012;24.870;2024-01-30T01:36:36;8.32;;;4.82;;
46411;SDS011;32113;42.012;24.870;2024-01-30T01:39:01;7.70;;;5.07;;
46411;SDS011;32113;42.012;24.870;2024-01-30T01:41:31;7.30;;;4.68;;
46411;SDS011;32113;42.012;24.870;2024-01-30T01:43:59;4.38;;;3.33;;
46411;SDS011;32113;42.012;24.870;2024-01-30T01:46:30;5.85;;;3.80;;
46411;SDS011;32113;42.012;24.870;2024-01-30T01:48:57;5.55;;;3.58;;
46411;SDS011;32113;42.012;24.870;2024-01-30T01:51:23;6.97;;;4.20;;
46411;SDS011;32113;42.012;24.870;2024-01-30T01:53:52;6.88;;;4.90;;
46411;SDS011;32113;42.012;24.870;2024-01-30T01:56:19;11.45;;;4.70;;
46411;SDS011;32113;42.012;24.870;2024-01-30T01:58:44;8.55;;;5.15;;
46411;SDS011;32113;42.012;24.870;2024-01-30T02:01:12;7.22;;;4.18;;
46411;SDS011;32113;42.012;24.870;2024-01-30T02:03:38;8.48;;;4.63;;
46411;SDS011;32113;42.012;24.870;2024-01-30T02:06:06;9.50;;;5.78;;
46411;SDS011;32113;42.012;24.870;2024-01-30T02:08:31;7.53;;;4.40;;
46411;SDS011;32113;42.012;24.870;2024-01-30T02:10:57;8.65;;;5.28;;
46411;SDS011;32113;42.012;24.870;2024-01-30T02:13:23;9.07;;;4.68;;
46411;SDS011;32113;42.012;24.870;2024-01-30T02:15:49;9.88;;;4.80;;
46411;SDS011;32113;42.012;24.870;2024-01-30T02:18:15;10.73;;;5.25;;
46411;SDS011;32113;42.012;24.870;2024-01-30T02:20:41;9.13;;;5.20;;
46411;SDS011;32113;42.012;24.870;2024-01-30T02:23:07;7.97;;;5.20;;
46411;SDS011;32113;42.012;24.870;2024-01-30T02:25:42;11.32;;;5.40;;
46411;SDS011;32113;42.012;24.870;2024-01-30T02:28:14;10.25;;;5.60;;
46411;SDS011;32113;42.012;24.870;2024-01-30T02:30:40;10.02;;;5.30;;
46411;SDS011;32113;42.012;24.870;2024-01-30T02:33:07;11.38;;;5.38;;
46411;SDS011;32113;42.012;24.870;2024-01-30T02:35:33;8.43;;;4.65;;
46411;SDS011;32113;42.012;24.870;2024-01-30T02:37:59;8.32;;;5.00;;
46411;SDS011;32113;42.012;24.870;2024-01-30T02:40:24;11.52;;;5.32;;
46411;SDS011;32113;42.012;24.870;2024-01-30T02:42:50;16.98;;;5.80;;
46411;SDS011;32113;42.012;24.870;2024-01-30T02:45:16;19.55;;;6.13;;
46411;SDS011;32113;42.012;24.870;2024-01-30T02:47:41;14.57;;;5.85;;
46411;SDS011;32113;42.012;24.870;2024-01-30T02:50:07;10.07;;;5.53;;
46411;SDS011;32113;42.012;24.870;2024-01-30T02:52:33;10.07;;;5.18;;
46411;SDS011;32113;42.012;24.870;2024-01-30T02:54:58;11.80;;;5.55;;
46411;SDS011;32113;42.012;24.870;2024-01-30T02:57:24;9.52;;;6.22;;
46411;SDS011;32113;42.012;24.870;2024-01-30T02:59:49;9.98;;;6.68;;
46411;SDS011;32113;42.012;24.870;2024-01-30T03:02:15;12.98;;;7.85;;
46411;SDS011;32113;42.012;24.870;2024-01-30T03:04:41;11.18;;;7.35;;
46411;SDS011;32113;42.012;24.870;2024-01-30T03:07:07;12.68;;;7.55;;
46411;SDS011;32113;42.012;24.870;2024-01-30T03:09:32;11.40;;;7.57;;
46411;SDS011;32113;42.012;24.870;2024-01-30T03:11:58;15.57;;;8.00;;
46411;SDS011;32113;42.012;24.870;2024-01-30T03:14:23;18.42;;;8.82;;
46411;SDS011;32113;42.012;24.870;2024-01-30T03:16:49;16.33;;;8.65;;
46411;SDS011;32113;42.012;24.870;2024-01-30T03:19:14;13.35;;;8.32;;
46411;SDS011;32113;42.012;24.870;2024-01-30T03:21:40;14.20;;;8.38;;
46411;SDS011;32113;42.012;24.870;2024-01-30T03:24:05;18.35;;;8.60;;
46411;SDS011;32113;42.012;24.870;2024-01-30T03:26:30;13.23;;;8.35;;
46411;SDS011;32113;42.012;24.870;2024-01-30T03:28:56;18.00;;;9.27;;
46411;SDS011;32113;42.012;24.870;2024-01-30T03:31:21;18.63;;;9.35;;
46411;SDS011;32113;42.012;24.870;2024-01-30T03:33:47;16.05;;;9.70;;
46411;SDS011;32113;42.012;24.870;2024-01-30T03:36:12;18.35;;;9.90;;
46411;SDS011;32113;42.012;24.870;2024-01-30T03:38:37;23.20;;;10.82;;
46411;SDS011;32113;42.012;24.870;2024-01-30T03:41:03;23.92;;;10.15;;
46411;SDS011;32113;42.012;24.870;2024-01-30T03:43:28;17.70;;;10.38;;
46411;SDS011;32113;42.012;24.870;2024-01-30T03:45:54;19.77;;;10.27;;
46411;SDS011;32113;42.012;24.870;2024-01-30T03:48:20;21.60;;;11.68;;
46411;SDS011;32113;42.012;24.870;2024-01-30T03:50:46;17.83;;;10.60;;
46411;SDS011;32113;42.012;24.870;2024-01-30T03:53:11;18.90;;;11.35;;
46411;SDS011;32113;42.012;24.870;2024-01-30T03:55:37;18.85;;;10.88;;
46411;SDS011;32113;42.012;24.870;2024-01-30T03:58:02;21.45;;;12.48;;
46411;SDS011;32113;42.012;24.870;2024-01-30T04:00:27;22.58;;;12.32;;
46411;SDS011;32113;42.012;24.870;2024-01-30T04:02:53;20.38;;;12.18;;
46411;SDS011;32113;42.012;24.870;2024-01-30T04:05:18;18.38;;;11.10;;
46411;SDS011;32113;42.012;24.870;2024-01-30T04:07:44;22.48;;;10.57;;
46411;SDS011;32113;42.012;24.870;2024-01-30T04:10:09;18.55;;;10.73;;
46411;SDS011;32113;42.012;24.870;2024-01-30T04:12:35;21.75;;;12.05;;
46411;SDS011;32113;42.012;24.870;2024-01-30T04:15:01;19.83;;;12.25;;
46411;SDS011;32113;42.012;24.870;2024-01-30T04:17:27;22.77;;;12.93;;
46411;SDS011;32113;42.012;24.870;2024-01-30T04:19:54;26.55;;;12.93;;
46411;SDS011;32113;42.012;24.870;2024-01-30T04:22:19;19.95;;;12.95;;
46411;SDS011;32113;42.012;24.870;2024-01-30T04:24:45;23.25;;;13.52;;
46411;SDS011;32113;42.012;24.870;2024-01-30T04:27:10;23.23;;;12.50;;
46411;SDS011;32113;42.012;24.870;2024-01-30T04:29:35;25.08;;;12.88;;
46411;SDS011;32113;42.012;24.870;2024-01-30T04:32:01;22.10;;;12.43;;
46411;SDS011;32113;42.012;24.870;2024-01-30T04:34:26;20.67;;;12.23;;
46411;SDS011;32113;42.012;24.870;2024-01-30T04:36:52;25.92;;;13.05;;
46411;SDS011;32113;42.012;24.870;2024-01-30T04:39:17;32.70;;;14.65;;
46411;SDS011;32113;42.012;24.870;2024-01-30T04:41:42;29.98;;;13.88;;
46411;SDS011;32113;42.012;24.870;2024-01-30T04:44:08;34.80;;;14.68;;
46411;SDS011;32113;42.012;24.870;2024-01-30T04:46:33;27.70;;;15.48;;
46411;SDS011;32113;42.012;24.870;2024-01-30T04:51:26;23.48;;;12.85;;
46411;SDS011;32113;42.012;24.870;2024-01-30T04:53:52;27.40;;;13.50;;
46411;SDS011;32113;42.012;24.870;2024-01-30T04:56:17;33.75;;;14.65;;
46411;SDS011;32113;42.012;24.870;2024-01-30T04:58:43;37.10;;;14.18;;
46411;SDS011;32113;42.012;24.870;2024-01-30T05:01:08;30.20;;;13.15;;
46411;SDS011;32113;42.012;24.870;2024-01-30T05:03:34;22.77;;;12.95;;
46411;SDS011;32113;42.012;24.870;2024-01-30T05:06:00;17.75;;;11.45;;
46411;SDS011;32113;42.012;24.870;2024-01-30T05:08:25;24.17;;;12.00;;
46411;SDS011;32113;42.012;24.870;2024-01-30T05:10:51;25.17;;;12.68;;
46411;SDS011;32113;42.012;24.870;2024-01-30T05:13:16;35.30;;;14.65;;
46411;SDS011;32113;42.012;24.870;2024-01-30T05:15:41;25.40;;;13.18;;
46411;SDS011;32113;42.012;24.870;2024-01-30T05:18:07;23.10;;;13.75;;
46411;SDS011;32113;42.012;24.870;2024-01-30T05:20:32;22.35;;;12.93;;
46411;SDS011;32113;42.012;24.870;2024-01-30T05:22:58;26.77;;;13.80;;
46411;SDS011;32113;42.012;24.870;2024-01-30T05:25:23;29.48;;;14.35;;
46411;SDS011;32113;42.012;24.870;2024-01-30T05:27:49;37.65;;;16.60;;
46411;SDS011;32113;42.012;24.870;2024-01-30T05:30:15;34.13;;;17.77;;
46411;SDS011;32113;42.012;24.870;2024-01-30T05:32:40;24.48;;;14.07;;
46411;SDS011;32113;42.012;24.870;2024-01-30T05:35:06;24.92;;;11.73;;
46411;SDS011;32113;42.012;24.870;2024-01-30T05:37:33;21.23;;;11.80;;
46411;SDS011;32113;42.012;24.870;2024-01-30T05:39:58;26.20;;;12.00;;
46411;SDS011;32113;42.012;24.870;2024-01-30T05:42:24;22.75;;;13.75;;
46411;SDS011;32113;42.012;24.870;2024-01-30T05:44:50;24.02;;;13.63;;
46411;SDS011;32113;42.012;24.870;2024-01-30T05:47:15;29.05;;;15.45;;
46411;SDS011;32113;42.012;24.870;2024-01-30T05:49:41;28.33;;;16.45;;
46411;SDS011;32113;42.012;24.870;2024-01-30T05:52:07;32.92;;;16.30;;
46411;SDS011;32113;42.012;24.870;2024-01-30T05:54:32;30.52;;;14.43;;
46411;SDS011;32113;42.012;24.870;2024-01-30T05:56:57;28.70;;;15.52;;
46411;SDS011;32113;42.012;24.870;2024-01-30T05:59:23;33.30;;;15.70;;
46411;SDS011;32113;42.012;24.870;2024-01-30T06:01:48;38.42;;;16.25;;
46411;SDS011;32113;42.012;24.870;2024-01-30T06:04:14;23.73;;;14.15;;
46411;SDS011;32113;42.012;24.870;2024-01-30T06:06:39;34.85;;;16.92;;
46411;SDS011;32113;42.012;24.870;2024-01-30T06:09:05;44.10;;;17.42;;
46411;SDS011;32113;42.012;24.870;2024-01-30T06:11:33;32.53;;;17.13;;
46411;SDS011;32113;42.012;24.870;2024-01-30T06:13:58;39.75;;;17.33;;
46411;SDS011;32113;42.012;24.870;2024-01-30T06:16:23;37.45;;;18.73;;
46411;SDS011;32113;42.012;24.870;2024-01-30T06:18:49;44.10;;;18.15;;
46411;SDS011;32113;42.012;24.870;2024-01-30T06:21:14;32.38;;;18.45;;
46411;SDS011;32113;42.012;24.870;2024-01-30T06:23:40;31.75;;;17.65;;
46411;SDS011;32113;42.012;24.870;2024-01-30T06:26:06;74.55;;;44.15;;
46411;SDS011;32113;42.012;24.870;2024-01-30T06:28:32;39.45;;;22.52;;
46411;SDS011;32113;42.012;24.870;2024-01-30T06:30:57;88.00;;;59.42;;
46411;SDS011;32113;42.012;24.870;2024-01-30T06:33:23;57.63;;;38.17;;
46411;SDS011;32113;42.012;24.870;2024-01-30T06:35:48;40.03;;;23.55;;
46411;SDS011;32113;42.012;24.870;2024-01-30T06:38:13;43.38;;;26.25;;
46411;SDS011;32113;42.012;24.870;2024-01-30T06:40:40;32.45;;;18.20;;
46411;SDS011;32113;42.012;24.870;2024-01-30T06:43:06;44.05;;;23.08;;
46411;SDS011;32113;42.012;24.870;2024-01-30T06:45:32;29.73;;;19.00;;
46411;SDS011;32113;42.012;24.870;2024-01-30T06:47:59;36.47;;;23.58;;
46411;SDS011;32113;42.012;24.870;2024-01-30T06:50:24;33.58;;;20.40;;
46411;SDS011;32113;42.012;24.870;2024-01-30T06:52:50;36.13;;;18.20;;
46411;SDS011;32113;42.012;24.870;2024-01-30T06:55:16;36.63;;;18.45;;
46411;SDS011;32113;42.012;24.870;2024-01-30T06:57:41;30.05;;;16.48;;
46411;SDS011;32113;42.012;24.870;2024-01-30T07:00:07;48.53;;;22.45;;
46411;SDS011;32113;42.012;24.870;2024-01-30T07:02:32;50.08;;;22.10;;
46411;SDS011;32113;42.012;24.870;2024-01-30T07:04:58;49.63;;;24.10;;
46411;SDS011;32113;42.012;24.870;2024-01-30T07:07:23;52.63;;;23.92;;
46411;SDS011;32113;42.012;24.870;2024-01-30T07:09:49;49.58;;;24.20;;
46411;SDS011;32113;42.012;24.870;2024-01-30T07:12:17;46.78;;;22.90;;
46411;SDS011;32113;42.012;24.870;2024-01-30T07:14:43;42.85;;;17.63;;
46411;SDS011;32113;42.012;24.870;2024-01-30T07:17:08;32.95;;;17.20;;
46411;SDS011;32113;42.012;24.870;2024-01-30T07:19:33;34.75;;;15.18;;
46411;SDS011;32113;42.012;24.870;2024-01-30T07:22:00;43.55;;;20.45;;
46411;SDS011;32113;42.012;24.870;2024-01-30T07:24:26;33.13;;;18.35;;
46411;SDS011;32113;42.012;24.870;2024-01-30T07:26:51;33.65;;;14.82;;
46411;SDS011;32113;42.012;24.870;2024-01-30T07:29:17;25.48;;;13.48;;
46411;SDS011;32113;42.012;24.870;2024-01-30T07:31:43;29.52;;;15.07;;
46411;SDS011;32113;42.012;24.870;2024-01-30T07:34:08;25.40;;;16.50;;
46411;SDS011;32113;42.012;24.870;2024-01-30T07:36:34;30.23;;;17.27;;
46411;SDS011;32113;42.012;24.870;2024-01-30T07:38:59;27.10;;;16.15;;
46411;SDS011;32113;42.012;24.870;2024-01-30T07:41:25;26.88;;;16.85;;
46411;SDS011;32113;42.012;24.870;2024-01-30T07:43:50;27.02;;;16.13;;
46411;SDS011;32113;42.012;24.870;2024-01-30T07:46:16;26.80;;;15.95;;
46411;SDS011;32113;42.012;24.870;2024-01-30T07:48:41;23.98;;;14.43;;
46411;SDS011;32113;42.012;24.870;2024-01-30T07:51:07;29.92;;;15.88;;
46411;SDS011;32113;42.012;24.870;2024-01-30T07:53:32;32.45;;;15.73;;
46411;SDS011;32113;42.012;24.870;2024-01-30T07:55:57;34.17;;;17.38;;
46411;SDS011;32113;42.012;24.870;2024-01-30T07:58:23;31.25;;;16.40;;
46411;SDS011;32113;42.012;24.870;2024-01-30T08:00:49;32.92;;;18.95;;
46411;SDS011;32113;42.012;24.870;2024-01-30T08:03:14;37.10;;;18.38;;
46411;SDS011;32113;42.012;24.870;2024-01-30T08:05:41;31.75;;;18.48;;
46411;SDS011;32113;42.012;24.870;2024-01-30T08:08:07;32.72;;;18.60;;
46411;SDS011;32113;42.012;24.870;2024-01-30T08:10:32;34.90;;;18.80;;
46411;SDS011;32113;42.012;24.870;2024-01-30T08:12:57;38.28;;;19.30;;
46411;SDS011;32113;42.012;24.870;2024-01-30T08:15:23;44.53;;;19.75;;
46411;SDS011;32113;42.012;24.870;2024-01-30T08:17:48;30.92;;;18.95;;
46411;SDS011;32113;42.012;24.870;2024-01-30T08:20:15;34.30;;;19.60;;
46411;SDS011;32113;42.012;24.870;2024-01-30T08:22:41;34.35;;;18.58;;
46411;SDS011;32113;42.012;24.870;2024-01-30T08:25:07;32.33;;;16.80;;
46411;SDS011;32113;42.012;24.870;2024-01-30T08:27:33;38.03;;;20.88;;
46411;SDS011;32113;42.012;24.870;2024-01-30T08:30:00;29.35;;;19.23;;
46411;SDS011;32113;42.012;24.870;2024-01-30T08:32:26;38.13;;;20.85;;
46411;SDS011;32113;42.012;24.870;2024-01-30T08:34:51;39.63;;;20.90;;
46411;SDS011;32113;42.012;24.870;2024-01-30T08:37:17;36.85;;;21.58;;
46411;SDS011;32113;42.012;24.870;2024-01-30T08:39:43;41.17;;;23.92;;
46411;SDS011;32113;42.012;24.870;2024-01-30T08:42:09;36.25;;;20.92;;
46411;SDS011;32113;42.012;24.870;2024-01-30T08:44:35;32.33;;;19.85;;
46411;SDS011;32113;42.012;24.870;2024-01-30T08:47:00;33.22;;;19.08;;
46411;SDS011;32113;42.012;24.870;2024-01-30T08:49:26;35.25;;;19.70;;
46411;SDS011;32113;42.012;24.870;2024-01-30T08:51:51;42.80;;;21.08;;
46411;SDS011;32113;42.012;24.870;2024-01-30T08:54:17;38.75;;;20.95;;
46411;SDS011;32113;42.012;24.870;2024-01-30T08:56:42;38.83;;;22.70;;
46411;SDS011;32113;42.012;24.870;2024-01-30T08:59:08;39.05;;;21.92;;
46411;SDS011;32113;42.012;24.870;2024-01-30T09:01:33;40.47;;;22.55;;
46411;SDS011;32113;42.012;24.870;2024-01-30T09:03:59;36.72;;;21.77;;
46411;SDS011;32113;42.012;24.870;2024-01-30T09:06:24;37.60;;;24.85;;
46411;SDS011;32113;42.012;24.870;2024-01-30T09:08:52;38.17;;;19.08;;
46411;SDS011;32113;42.012;24.870;2024-01-30T09:11:18;36.88;;;20.50;;
46411;SDS011;32113;42.012;24.870;2024-01-30T09:13:43;34.88;;;20.20;;
46411;SDS011;32113;42.012;24.870;2024-01-30T09:16:09;36.63;;;20.30;;
46411;SDS011;32113;42.012;24.870;2024-01-30T09:18:34;31.77;;;18.40;;
46411;SDS011;32113;42.012;24.870;2024-01-30T09:21:00;31.00;;;19.63;;
46411;SDS011;32113;42.012;24.870;2024-01-30T09:23:28;36.80;;;19.23;;
46411;SDS011;32113;42.012;24.870;2024-01-30T09:25:54;19.92;;;12.23;;
46411;SDS011;32113;42.012;24.870;2024-01-30T09:28:20;19.08;;;11.25;;
46411;SDS011;32113;42.012;24.870;2024-01-30T09:30:45;22.27;;;10.90;;
46411;SDS011;32113;42.012;24.870;2024-01-30T09:33:11;18.85;;;12.30;;
46411;SDS011;32113;42.012;24.870;2024-01-30T09:35:36;20.73;;;12.88;;
46411;SDS011;32113;42.012;24.870;2024-01-30T09:38:02;22.63;;;11.13;;
46411;SDS011;32113;42.012;24.870;2024-01-30T09:40:28;18.48;;;11.32;;
46411;SDS011;32113;42.012;24.870;2024-01-30T09:42:53;17.98;;;11.75;;
46411;SDS011;32113;42.012;24.870;2024-01-30T09:45:21;28.33;;;13.25;;
46411;SDS011;32113;42.012;24.870;2024-01-30T09:47:49;26.42;;;14.07;;
46411;SDS011;32113;42.012;24.870;2024-01-30T09:50:15;24.88;;;13.73;;
46411;SDS011;32113;42.012;24.870;2024-01-30T09:52:42;24.73;;;15.40;;
46411;SDS011;32113;42.012;24.870;2024-01-30T09:55:08;23.60;;;14.27;;
46411;SDS011;32113;42.012;24.870;2024-01-30T09:57:34;24.33;;;14.20;;
46411;SDS011;32113;42.012;24.870;2024-01-30T10:00:00;23.38;;;13.85;;
46411;SDS011;32113;42.012;24.870;2024-01-30T10:02:26;26.02;;;14.85;;
46411;SDS011;32113;42.012;24.870;2024-01-30T10:04:51;30.00;;;15.55;;
46411;SDS011;32113;42.012;24.870;2024-01-30T10:07:17;23.15;;;12.15;;
46411;SDS011;32113;42.012;24.870;2024-01-30T10:09:43;20.83;;;10.80;;
46411;SDS011;32113;42.012;24.870;2024-01-30T10:12:09;15.70;;;9.68;;
46411;SDS011;32113;42.012;24.870;2024-01-30T10:14:38;23.23;;;12.77;;
46411;SDS011;32113;42.012;24.870;2024-01-30T10:17:04;25.15;;;13.30;;
46411;SDS011;32113;42.012;24.870;2024-01-30T10:19:31;19.45;;;12.10;;
46411;SDS011;32113;42.012;24.870;2024-01-30T10:21:56;14.13;;;9.38;;
46411;SDS011;32113;42.012;24.870;2024-01-30T10:24:25;23.65;;;8.65;;
46411;SDS011;32113;42.012;24.870;2024-01-30T10:26:52;15.15;;;7.60;;
46411;SDS011;32113;42.012;24.870;2024-01-30T10:29:18;14.90;;;7.45;;
46411;SDS011;32113;42.012;24.870;2024-01-30T10:31:43;13.25;;;7.60;;
46411;SDS011;32113;42.012;24.870;2024-01-30T10:34:09;10.15;;;6.57;;
46411;SDS011;32113;42.012;24.870;2024-01-30T10:36:36;13.95;;;6.82;;
46411;SDS011;32113;42.012;24.870;2024-01-30T10:39:08;10.98;;;6.25;;
46411;SDS011;32113;42.012;24.870;2024-01-30T10:41:35;8.73;;;6.18;;
46411;SDS011;32113;42.012;24.870;2024-01-30T10:44:08;9.95;;;6.50;;
46411;SDS011;32113;42.012;24.870;2024-01-30T10:46:35;12.65;;;7.40;;
46411;SDS011;32113;42.012;24.870;2024-01-30T10:49:04;11.10;;;5.55;;
46411;SDS011;32113;42.012;24.870;2024-01-30T10:51:31;16.83;;;6.43;;
46411;SDS011;32113;42.012;24.870;2024-01-30T10:53:57;12.27;;;7.47;;
46411;SDS011;32113;42.012;24.870;2024-01-30T10:56:23;12.65;;;7.55;;
46411;SDS011;32113;42.012;24.870;2024-01-30T10:58:52;15.38;;;6.88;;
46411;SDS011;32113;42.012;24.870;2024-01-30T11:01:19;12.60;;;8.25;;
46411;SDS011;32113;42.012;24.870;2024-01-30T11:03:48;10.73;;;5.68;;
46411;SDS011;32113;42.012;24.870;2024-01-30T11:06:17;9.52;;;5.47;;
46411;SDS011;32113;42.012;24.870;2024-01-30T11:08:46;12.18;;;6.95;;
46411;SDS011;32113;42.012;24.870;2024-01-30T11:11:11;10.57;;;6.55;;
46411;SDS011;32113;42.012;24.870;2024-01-30T11:13:37;15.60;;;6.15;;
46411;SDS011;32113;42.012;24.870;2024-01-30T11:16:03;12.38;;;7.07;;
46411;SDS011;32113;42.012;24.870;2024-01-30T11:18:30;14.35;;;6.50;;
46411;SDS011;32113;42.012;24.870;2024-01-30T11:20:57;8.57;;;5.10;;
46411;SDS011;32113;42.012;24.870;2024-01-30T11:23:25;6.72;;;5.03;;
46411;SDS011;32113;42.012;24.870;2024-01-30T11:25:52;8.73;;;5.82;;
46411;SDS011;32113;42.012;24.870;2024-01-30T11:28:18;9.13;;;5.70;;
46411;SDS011;32113;42.012;24.870;2024-01-30T11:30:45;7.65;;;5.18;;
46411;SDS011;32113;42.012;24.870;2024-01-30T11:33:13;7.97;;;5.18;;
46411;SDS011;32113;42.012;24.870;2024-01-30T11:35:42;9.82;;;6.05;;
46411;SDS011;32113;42.012;24.870;2024-01-30T11:38:09;10.85;;;6.63;;
46411;SDS011;32113;42.012;24.870;2024-01-30T11:40:36;11.63;;;5.35;;
46411;SDS011;32113;42.012;24.870;2024-01-30T11:43:03;8.17;;;4.97;;
46411;SDS011;32113;42.012;24.870;2024-01-30T11:45:30;5.78;;;4.25;;
46411;SDS011;32113;42.012;24.870;2024-01-30T11:47:56;8.52;;;4.85;;
46411;SDS011;32113;42.012;24.870;2024-01-30T11:50:22;9.18;;;4.50;;
46411;SDS011;32113;42.012;24.870;2024-01-30T11:52:48;16.02;;;5.35;;
46411;SDS011;32113;42.012;24.870;2024-01-30T11:55:14;6.95;;;4.82;;
46411;SDS011;32113;42.012;24.870;2024-01-30T11:57:40;7.70;;;5.38;;
46411;SDS011;32113;42.012;24.870;2024-01-30T12:00:06;13.10;;;6.38;;
46411;SDS011;32113;42.012;24.870;2024-01-30T12:02:39;9.38;;;4.97;;
46411;SDS011;32113;42.012;24.870;2024-01-30T12:05:05;10.77;;;5.15;;
46411;SDS011;32113;42.012;24.870;2024-01-30T12:07:32;11.43;;;5.18;;
46411;SDS011;32113;42.012;24.870;2024-01-30T12:09:57;10.63;;;5.60;;
46411;SDS011;32113;42.012;24.870;2024-01-30T12:12:26;7.18;;;4.68;;
46411;SDS011;32113;42.012;24.870;2024-01-30T12:14:53;10.63;;;4.53;;
46411;SDS011;32113;42.012;24.870;2024-01-30T12:17:29;9.05;;;4.30;;
46411;SDS011;32113;42.012;24.870;2024-01-30T12:20:02;7.38;;;4.57;;
46411;SDS011;32113;42.012;24.870;2024-01-30T12:22:33;15.30;;;7.50;;
46411;SDS011;32113;42.012;24.870;2024-01-30T12:25:01;8.18;;;5.00;;
46411;SDS011;32113;42.012;24.870;2024-01-30T12:27:26;8.13;;;4.97;;
46411;SDS011;32113;42.012;24.870;2024-01-30T12:29:56;6.72;;;5.28;;
46411;SDS011;32113;42.012;24.870;2024-01-30T12:32:23;11.48;;;7.90;;
46411;SDS011;32113;42.012;24.870;2024-01-30T12:34:49;20.83;;;14.32;;
46411;SDS011;32113;42.012;24.870;2024-01-30T12:37:14;9.95;;;5.80;;
46411;SDS011;32113;42.012;24.870;2024-01-30T12:39:45;6.63;;;4.88;;
46411;SDS011;32113;42.012;24.870;2024-01-30T12:42:11;10.38;;;6.20;;
46411;SDS011;32113;42.012;24.870;2024-01-30T12:44:36;18.52;;;10.98;;
46411;SDS011;32113;42.012;24.870;2024-01-30T12:47:05;17.85;;;11.15;;
46411;SDS011;32113;42.012;24.870;2024-01-30T12:49:30;20.85;;;13.05;;
46411;SDS011;32113;42.012;24.870;2024-01-30T12:51:56;17.33;;;8.65;;
46411;SDS011;32113;42.012;24.870;2024-01-30T12:54:22;11.15;;;6.45;;
46411;SDS011;32113;42.012;24.870;2024-01-30T12:56:48;12.38;;;8.15;;
46411;SDS011;32113;42.012;24.870;2024-01-30T12:59:13;10.90;;;5.90;;
46411;SDS011;32113;42.012;24.870;2024-01-30T13:01:39;11.65;;;6.00;;
46411;SDS011;32113;42.012;24.870;2024-01-30T13:04:04;13.50;;;6.75;;
46411;SDS011;32113;42.012;24.870;2024-01-30T13:06:30;11.07;;;6.90;;
46411;SDS011;32113;42.012;24.870;2024-01-30T13:08:56;10.20;;;7.07;;
46411;SDS011;32113;42.012;24.870;2024-01-30T13:11:21;12.13;;;7.18;;
46411;SDS011;32113;42.012;24.870;2024-01-30T13:13:47;17.30;;;9.05;;
46411;SDS011;32113;42.012;24.870;2024-01-30T13:16:12;21.80;;;9.20;;
46411;SDS011;32113;42.012;24.870;2024-01-30T13:18:38;14.52;;;11.75;;
46411;SDS011;32113;42.012;24.870;2024-01-30T13:21:03;8.93;;;7.20;;
46411;SDS011;32113;42.012;24.870;2024-01-30T13:23:29;16.40;;;10.13;;
46411;SDS011;32113;42.012;24.870;2024-01-30T13:25:54;37.60;;;26.63;;
46411;SDS011;32113;42.012;24.870;2024-01-30T13:28:23;16.20;;;10.82;;
46411;SDS011;32113;42.012;24.870;2024-01-30T13:30:48;11.02;;;5.63;;
46411;SDS011;32113;42.012;24.870;2024-01-30T13:33:14;9.63;;;5.47;;
46411;SDS011;32113;42.012;24.870;2024-01-30T13:35:39;12.18;;;5.47;;
46411;SDS011;32113;42.012;24.870;2024-01-30T13:38:05;25.33;;;16.23;;
46411;SDS011;32113;42.012;24.870;2024-01-30T13:40:30;12.85;;;8.80;;
46411;SDS011;32113;42.012;24.870;2024-01-30T13:42:56;12.15;;;6.00;;
46411;SDS011;32113;42.012;24.870;2024-01-30T13:45:21;9.27;;;5.40;;
46411;SDS011;32113;42.012;24.870;2024-01-30T13:47:47;12.13;;;5.90;;
46411;SDS011;32113;42.012;24.870;2024-01-30T13:50:12;9.57;;;6.15;;
46411;SDS011;32113;42.012;24.870;2024-01-30T13:52:40;17.77;;;10.20;;
46411;SDS011;32113;42.012;24.870;2024-01-30T13:55:06;10.40;;;7.50;;
46411;SDS011;32113;42.012;24.870;2024-01-30T13:57:31;14.60;;;10.07;;
46411;SDS011;32113;42.012;24.870;2024-01-30T14:00:00;14.38;;;7.97;;
46411;SDS011;32113;42.012;24.870;2024-01-30T14:02:26;16.13;;;8.23;;
46411;SDS011;32113;42.012;24.870;2024-01-30T14:04:51;31.60;;;24.23;;
46411;SDS011;32113;42.012;24.870;2024-01-30T14:07:17;40.15;;;29.67;;
46411;SDS011;32113;42.012;24.870;2024-01-30T14:09:43;50.17;;;26.60;;
46411;SDS011;32113;42.012;24.870;2024-01-30T14:12:09;53.35;;;32.22;;
46411;SDS011;32113;42.012;24.870;2024-01-30T14:14:34;45.13;;;24.77;;